Time;durP1;ratioP1;P1;durP2;ratioP2;P2;SDS_P1;SDS_P2;PMS_P1;PMS_P2;Temp;Humidity;BMP_temperature;BMP_pressure;BME280_temperature;BME280_humidity;BME280_pressure;Samples;Min_cycle;Max_cycle;Signal;HPM_P1;HPM_P2
2023/10/25 00:00:27;;;;;;;5.30;2.80;;;8.40;99.90;;;;;;5065676;28;20079;-61
2023/10/25 00:02:53;;;;;;;4.70;3.03;;;8.40;99.90;;;;;;5064449;28;20598;-59
2023/10/25 00:05:18;;;;;;;11.88;4.18;;;8.40;99.90;;;;;;5058432;28;20402;-56
2023/10/25 00:07:44;;;;;;;8.10;3.45;;;8.40;99.90;;;;;;5057741;28;20144;-56
2023/10/25 00:10:10;;;;;;;10.00;3.33;;;8.40;99.90;;;;;;5069951;28;20497;-60
2023/10/25 00:12:36;;;;;;;9.25;3.35;;;8.40;99.90;;;;;;5055761;28;20110;-58
2023/10/25 00:15:02;;;;;;;6.88;3.25;;;8.40;99.90;;;;;;5064795;28;20136;-60
2023/10/25 00:17:28;;;;;;;6.00;3.33;;;8.50;99.90;;;;;;5064541;28;20031;-59
2023/10/25 00:19:54;;;;;;;7.72;3.10;;;8.50;99.90;;;;;;5063052;28;20407;-59
2023/10/25 00:22:19;;;;;;;7.10;3.38;;;8.50;99.90;;;;;;5062979;28;20397;-57
2023/10/25 00:24:45;;;;;;;8.02;3.00;;;8.50;99.90;;;;;;5063259;28;20029;-59
2023/10/25 00:27:10;;;;;;;15.30;2.97;;;8.50;99.90;;;;;;5059248;28;20056;-59
2023/10/25 00:29:36;;;;;;;10.65;3.40;;;8.50;99.90;;;;;;5062583;28;20495;-60
2023/10/25 00:32:01;;;;;;;3.63;2.33;;;8.50;99.90;;;;;;5054116;28;20126;-61
2023/10/25 00:34:27;;;;;;;5.15;3.03;;;8.50;99.90;;;;;;5059627;28;20054;-58
2023/10/25 00:36:52;;;;;;;6.13;2.38;;;8.50;99.90;;;;;;5067311;28;20066;-58
2023/10/25 00:39:18;;;;;;;6.75;2.67;;;8.50;99.90;;;;;;5063128;28;20066;-59
2023/10/25 00:41:43;;;;;;;6.30;3.10;;;8.40;99.90;;;;;;5060230;28;20052;-61
2023/10/25 00:44:09;;;;;;;7.85;3.53;;;8.40;99.90;;;;;;5060674;28;20146;-59
2023/10/25 00:46:36;;;;;;;11.23;3.25;;;8.40;99.90;;;;;;5063039;28;20118;-60
2023/10/25 00:49:02;;;;;;;6.68;2.90;;;8.30;99.90;;;;;;5063106;28;20032;-58
2023/10/25 00:51:30;;;;;;;8.60;3.03;;;8.40;99.90;;;;;;5064214;28;20051;-61
2023/10/25 00:53:59;;;;;;;5.10;3.08;;;8.40;99.90;;;;;;5062023;28;20029;-60
2023/10/25 00:56:26;;;;;;;4.65;3.08;;;8.30;99.90;;;;;;5062536;28;20024;-59
2023/10/25 00:58:54;;;;;;;13.82;3.00;;;8.30;99.90;;;;;;5059603;28;20040;-58
2023/10/25 01:01:21;;;;;;;8.43;2.70;;;8.30;99.90;;;;;;5067526;28;20036;-60
2023/10/25 01:03:47;;;;;;;9.05;3.05;;;8.30;99.90;;;;;;5062103;28;20505;-60
2023/10/25 01:06:13;;;;;;;4.07;2.53;;;8.30;99.90;;;;;;5065344;28;20029;-60
2023/10/25 01:08:40;;;;;;;4.57;2.60;;;8.30;99.90;;;;;;5060082;28;20411;-59
2023/10/25 01:11:06;;;;;;;8.52;3.13;;;8.40;99.90;;;;;;5062883;28;20025;-60
2023/10/25 01:13:31;;;;;;;6.60;2.72;;;8.40;99.90;;;;;;5057792;28;20032;-59
2023/10/25 01:15:57;;;;;;;13.95;5.38;;;8.40;99.90;;;;;;5054271;28;20028;-61
2023/10/25 01:18:23;;;;;;;14.80;3.20;;;8.40;99.90;;;;;;5058936;28;20024;-59
2023/10/25 01:20:48;;;;;;;9.43;2.85;;;8.40;99.90;;;;;;5058014;28;20057;-60
2023/10/25 01:23:14;;;;;;;7.32;2.92;;;8.40;99.90;;;;;;5058932;28;20029;-61
2023/10/25 01:25:41;;;;;;;7.63;2.97;;;8.40;99.90;;;;;;5056966;28;20045;-61
2023/10/25 01:28:07;;;;;;;10.25;2.90;;;8.50;99.90;;;;;;5060647;28;20425;-61
2023/10/25 01:30:33;;;;;;;7.03;3.13;;;8.40;99.90;;;;;;5061895;28;20024;-59
2023/10/25 01:32:58;;;;;;;7.13;3.03;;;8.50;99.90;;;;;;5057853;28;20033;-61
2023/10/25 01:35:25;;;;;;;9.88;3.55;;;8.50;99.90;;;;;;5063771;28;20021;-61
2023/10/25 01:37:50;;;;;;;7.78;3.10;;;8.50;99.90;;;;;;5054578;28;20442;-61
2023/10/25 01:40:16;;;;;;;4.68;2.83;;;8.50;99.90;;;;;;5060013;28;20028;-59
2023/10/25 01:42:43;;;;;;;7.72;3.13;;;8.60;99.90;;;;;;5059041;28;20031;-60
2023/10/25 01:45:09;;;;;;;5.75;3.45;;;8.60;99.90;;;;;;5059720;28;20032;-61
2023/10/25 01:47:34;;;;;;;10.77;2.97;;;8.60;99.90;;;;;;5061576;28;20040;-60
2023/10/25 01:50:00;;;;;;;6.68;3.65;;;8.60;99.90;;;;;;5061310;28;20028;-57
2023/10/25 01:52:25;;;;;;;8.52;3.38;;;8.70;99.90;;;;;;5055416;28;20012;-59
2023/10/25 01:54:51;;;;;;;12.77;4.05;;;8.70;99.90;;;;;;5061196;28;20024;-54
2023/10/25 01:57:17;;;;;;;9.52;4.15;;;8.70;99.90;;;;;;5055403;28;20073;-57
2023/10/25 01:59:43;;;;;;;6.78;3.92;;;8.70;99.90;;;;;;5058412;28;20039;-60
2023/10/25 02:02:12;;;;;;;11.13;4.30;;;8.60;99.90;;;;;;5056537;28;20039;-58
2023/10/25 02:04:38;;;;;;;9.77;4.65;;;8.60;99.90;;;;;;5060597;28;20036;-59
2023/10/25 02:07:04;;;;;;;13.05;4.90;;;8.60;99.90;;;;;;5061579;28;20032;-56
2023/10/25 02:09:30;;;;;;;10.98;5.20;;;8.60;99.90;;;;;;5057449;28;20037;-56
2023/10/25 02:11:56;;;;;;;13.27;5.43;;;8.60;99.90;;;;;;5056856;28;20035;-57
2023/10/25 02:14:22;;;;;;;11.50;5.43;;;8.60;99.90;;;;;;5063308;28;20016;-59
2023/10/25 02:16:48;;;;;;;8.70;5.57;;;8.60;99.90;;;;;;5055736;28;20432;-57
2023/10/25 02:19:15;;;;;;;11.13;6.15;;;8.60;99.90;;;;;;5062466;28;20082;-58
2023/10/25 02:21:40;;;;;;;10.95;6.57;;;8.50;99.90;;;;;;5055572;28;20078;-56
2023/10/25 02:24:06;;;;;;;9.75;5.68;;;8.50;99.90;;;;;;5058863;28;20017;-60
2023/10/25 02:26:32;;;;;;;12.38;6.78;;;8.50;99.90;;;;;;5059069;28;20392;-58
2023/10/25 02:28:59;;;;;;;14.25;6.78;;;8.50;99.90;;;;;;5056543;28;20042;-61
2023/10/25 02:31:24;;;;;;;13.30;6.57;;;8.50;99.90;;;;;;5066495;28;20016;-59
2023/10/25 02:33:50;;;;;;;17.13;7.25;;;8.50;99.90;;;;;;5064870;28;20395;-57
2023/10/25 02:36:16;;;;;;;10.32;6.57;;;8.50;99.90;;;;;;5051133;28;20055;-58
2023/10/25 02:38:41;;;;;;;15.30;7.53;;;8.50;99.90;;;;;;5063397;28;20074;-59
2023/10/25 02:41:07;;;;;;;19.63;7.03;;;8.50;99.90;;;;;;5067759;28;20048;-58
2023/10/25 02:43:34;;;;;;;16.52;7.75;;;8.40;99.90;;;;;;5062260;28;20024;-60
2023/10/25 02:46:03;;;;;;;11.57;7.43;;;8.40;99.90;;;;;;5060934;28;20012;-57
2023/10/25 02:48:29;;;;;;;12.50;7.22;;;8.40;99.90;;;;;;5057365;28;20078;-55
2023/10/25 02:50:58;;;;;;;14.90;7.93;;;8.40;99.90;;;;;;5055952;28;20024;-59
2023/10/25 02:53:23;;;;;;;21.52;7.15;;;8.40;99.90;;;;;;5057928;28;20058;-58
2023/10/25 02:55:49;;;;;;;15.43;7.70;;;8.40;99.90;;;;;;5059995;28;20067;-59
2023/10/25 02:58:15;;;;;;;22.42;8.10;;;8.30;99.90;;;;;;5055874;28;20389;-57
2023/10/25 03:00:41;;;;;;;14.95;8.18;;;8.30;99.90;;;;;;5057011;28;20025;-59
2023/10/25 03:03:07;;;;;;;13.27;7.55;;;8.30;99.90;;;;;;5058028;28;20028;-59
2023/10/25 03:05:32;;;;;;;20.77;7.47;;;8.30;99.90;;;;;;5054685;28;20102;-57
2023/10/25 03:07:59;;;;;;;17.70;7.63;;;8.30;99.90;;;;;;5059721;28;20040;-61
2023/10/25 03:10:24;;;;;;;15.00;8.18;;;8.20;99.90;;;;;;5055611;28;20033;-59
2023/10/25 03:12:50;;;;;;;16.30;9.05;;;8.20;99.90;;;;;;5057192;28;20131;-58
2023/10/25 03:15:15;;;;;;;13.88;8.55;;;8.20;99.90;;;;;;5055735;28;20060;-58
2023/10/25 03:17:41;;;;;;;13.32;7.55;;;8.20;99.90;;;;;;5056330;28;20098;-58
2023/10/25 03:20:07;;;;;;;19.25;8.48;;;8.20;99.90;;;;;;5058172;28;20047;-56
2023/10/25 03:22:32;;;;;;;13.27;8.02;;;8.20;99.90;;;;;;5057874;28;20095;-58
2023/10/25 03:24:58;;;;;;;12.57;8.65;;;8.20;99.90;;;;;;5057462;28;20047;-60
2023/10/25 03:27:24;;;;;;;18.17;7.72;;;8.20;99.90;;;;;;5058616;28;20429;-59
2023/10/25 03:29:49;;;;;;;20.50;9.25;;;8.20;99.90;;;;;;5061209;28;20414;-61
2023/10/25 03:32:15;;;;;;;21.70;10.63;;;8.20;99.90;;;;;;5063792;28;20112;-59
2023/10/25 03:34:42;;;;;;;12.48;8.30;;;8.20;99.90;;;;;;5065769;28;20057;-59
2023/10/25 03:37:07;;;;;;;16.98;8.18;;;8.10;99.90;;;;;;5059821;28;20024;-60
2023/10/25 03:39:33;;;;;;;21.58;9.73;;;8.20;99.90;;;;;;5064783;28;20031;-60
2023/10/25 03:41:58;;;;;;;14.30;8.57;;;8.20;99.90;;;;;;5061123;28;20028;-60
2023/10/25 03:44:24;;;;;;;21.13;9.27;;;8.10;99.90;;;;;;5067701;28;20032;-60
2023/10/25 03:46:49;;;;;;;15.88;8.70;;;8.20;99.90;;;;;;5063878;28;20033;-57
2023/10/25 03:49:15;;;;;;;14.25;7.97;;;8.10;99.90;;;;;;5061005;28;20036;-58
2023/10/25 03:51:40;;;;;;;15.57;9.70;;;8.20;99.90;;;;;;5055504;28;20035;-56
2023/10/25 03:54:06;;;;;;;16.60;9.07;;;8.10;99.90;;;;;;5067304;28;20501;-59
2023/10/25 03:56:31;;;;;;;16.85;8.70;;;8.10;99.90;;;;;;5075760;28;20028;-61
2023/10/25 03:58:57;;;;;;;17.42;9.00;;;8.10;99.90;;;;;;5059935;28;20037;-58
2023/10/25 04:01:23;;;;;;;16.38;9.48;;;8.10;99.90;;;;;;5062400;28;20028;-61
2023/10/25 04:03:48;;;;;;;18.80;8.90;;;8.10;99.90;;;;;;5060741;28;20040;-58
2023/10/25 04:06:14;;;;;;;17.40;8.40;;;8.10;99.90;;;;;;5066675;28;20059;-61
2023/10/25 04:08:39;;;;;;;15.38;9.10;;;8.10;99.90;;;;;;5065296;28;20532;-60
2023/10/25 04:11:05;;;;;;;17.58;9.18;;;8.10;99.90;;;;;;5062571;28;20029;-59
2023/10/25 04:13:30;;;;;;;18.50;8.68;;;8.10;99.90;;;;;;5060703;28;20029;-60
2023/10/25 04:16:04;;;;;;;15.35;8.15;;;8.10;99.90;;;;;;5058144;28;20090;-57
2023/10/25 04:18:31;;;;;;;14.30;7.68;;;8.10;99.90;;;;;;5058060;28;20021;-61
2023/10/25 04:20:58;;;;;;;15.65;8.68;;;8.10;99.90;;;;;;5058413;28;20025;-60
2023/10/25 04:23:25;;;;;;;16.23;8.65;;;8.10;99.90;;;;;;5052994;28;20107;-57
2023/10/25 04:25:50;;;;;;;16.05;8.68;;;8.10;99.90;;;;;;5055798;28;20047;-61
2023/10/25 04:28:18;;;;;;;17.60;9.27;;;8.10;99.90;;;;;;5052472;28;20021;-60
2023/10/25 04:30:43;;;;;;;19.83;8.65;;;8.10;99.90;;;;;;5065433;28;20394;-55
2023/10/25 04:33:09;;;;;;;15.93;8.93;;;8.20;99.90;;;;;;5061939;28;20048;-57
2023/10/25 04:35:34;;;;;;;16.80;8.82;;;8.20;99.90;;;;;;5051413;28;20025;-59
2023/10/25 04:38:01;;;;;;;16.50;9.70;;;8.20;99.90;;;;;;5057970;28;20025;-59
2023/10/25 04:40:26;;;;;;;15.38;9.45;;;8.20;99.90;;;;;;5061810;28;20056;-56
2023/10/25 04:42:53;;;;;;;26.45;11.07;;;8.20;99.90;;;;;;5056493;28;20443;-57
2023/10/25 04:45:22;;;;;;;17.83;10.82;;;8.20;99.90;;;;;;5059137;28;20063;-61
2023/10/25 04:47:51;;;;;;;22.92;10.40;;;8.20;99.90;;;;;;5062301;28;20151;-59
2023/10/25 04:50:21;;;;;;;21.02;10.20;;;8.20;99.90;;;;;;5060714;28;20433;-59
2023/10/25 04:52:47;;;;;;;21.73;10.48;;;8.20;99.90;;;;;;5055124;28;20112;-59
2023/10/25 04:55:13;;;;;;;17.23;9.77;;;8.20;99.90;;;;;;5058064;28;20025;-58
2023/10/25 04:57:38;;;;;;;25.40;10.80;;;8.10;99.90;;;;;;5058595;28;20029;-58
2023/10/25 05:00:08;;;;;;;20.63;11.35;;;8.10;99.90;;;;;;5060560;28;20028;-53
2023/10/25 05:02:33;;;;;;;17.90;9.82;;;8.10;99.90;;;;;;5058475;28;20462;-59
2023/10/25 05:04:59;;;;;;;21.20;10.77;;;8.10;99.90;;;;;;5060189;28;20056;-57
2023/10/25 05:07:24;;;;;;;22.58;11.15;;;8.10;99.90;;;;;;5050596;28;20214;-58
2023/10/25 05:09:50;;;;;;;20.73;10.60;;;8.10;99.90;;;;;;5058755;28;20107;-59
2023/10/25 05:12:22;;;;;;;18.40;9.57;;;8.00;99.90;;;;;;5062201;28;20032;-57
2023/10/25 05:14:48;;;;;;;24.42;11.35;;;8.00;99.90;;;;;;5063376;28;20064;-60
2023/10/25 05:17:14;;;;;;;23.10;10.80;;;8.00;99.90;;;;;;5056363;28;20081;-54
2023/10/25 05:19:39;;;;;;;18.17;10.17;;;8.00;99.90;;;;;;5017301;28;1208989;-56
2023/10/25 05:22:11;;;;;;;23.45;11.05;;;8.00;99.90;;;;;;5063096;28;20029;-54
2023/10/25 05:24:37;;;;;;;22.35;11.00;;;8.00;99.90;;;;;;5060928;28;20024;-56
2023/10/25 05:27:03;;;;;;;20.02;10.15;;;7.90;99.90;;;;;;5063048;28;20036;-57
2023/10/25 05:29:28;;;;;;;24.92;10.50;;;7.90;99.90;;;;;;5063714;28;20027;-59
2023/10/25 05:31:55;;;;;;;20.45;9.90;;;7.90;99.90;;;;;;5062993;28;20384;-59
2023/10/25 05:34:21;;;;;;;25.67;11.38;;;8.00;99.90;;;;;;5059956;28;20033;-59
2023/10/25 05:36:47;;;;;;;25.38;11.10;;;8.00;99.90;;;;;;5064704;28;20043;-57
2023/10/25 05:39:13;;;;;;;24.25;11.77;;;8.00;99.90;;;;;;5065414;28;20033;-60
2023/10/25 05:41:40;;;;;;;26.25;11.40;;;8.00;99.90;;;;;;5059323;28;20074;-57
2023/10/25 05:44:10;;;;;;;24.23;11.65;;;8.00;99.90;;;;;;5061564;28;20025;-60
2023/10/25 05:46:35;;;;;;;21.92;12.30;;;8.10;99.90;;;;;;5058789;28;20503;-57
2023/10/25 05:49:01;;;;;;;22.55;11.55;;;8.20;99.90;;;;;;5064172;28;20071;-59
2023/10/25 05:51:27;;;;;;;30.17;12.63;;;8.20;99.90;;;;;;5067241;28;20056;-59
2023/10/25 05:53:52;;;;;;;25.63;11.95;;;8.20;99.90;;;;;;5071920;28;20102;-59
2023/10/25 05:56:18;;;;;;;21.52;10.55;;;8.30;99.90;;;;;;5061030;28;20191;-58
2023/10/25 05:58:45;;;;;;;29.33;11.75;;;8.30;99.90;;;;;;5060412;28;20067;-58
2023/10/25 06:01:11;;;;;;;32.13;12.35;;;8.30;99.90;;;;;;5068351;28;20033;-58
2023/10/25 06:03:42;;;;;;;27.58;10.98;;;8.40;99.90;;;;;;5054234;28;20032;-59
2023/10/25 06:06:11;;;;;;;23.67;10.35;;;8.40;99.90;;;;;;5062515;28;20028;-59
2023/10/25 06:08:37;;;;;;;24.05;11.32;;;8.50;99.90;;;;;;5058006;28;20036;-61
2023/10/25 06:11:04;;;;;;;18.02;9.80;;;8.50;99.90;;;;;;5066483;28;20098;-57
2023/10/25 06:13:29;;;;;;;19.30;9.90;;;8.50;99.90;;;;;;5065864;28;20033;-58
2023/10/25 06:15:55;;;;;;;20.73;9.93;;;8.50;99.90;;;;;;5064071;28;20024;-55
2023/10/25 06:18:21;;;;;;;18.02;8.95;;;8.60;99.90;;;;;;5063783;28;20029;-56
2023/10/25 06:20:46;;;;;;;20.65;9.75;;;8.60;99.90;;;;;;5058689;28;20547;-59
2023/10/25 06:23:12;;;;;;;19.17;9.80;;;8.60;99.90;;;;;;5062271;28;20025;-58
2023/10/25 06:25:37;;;;;;;25.95;9.68;;;8.70;99.90;;;;;;5064866;28;20101;-57
2023/10/25 06:28:04;;;;;;;19.02;8.80;;;8.70;99.90;;;;;;5070480;28;20090;-55
2023/10/25 06:30:30;;;;;;;24.73;9.85;;;8.70;99.90;;;;;;5061658;28;20040;-56
2023/10/25 06:33:00;;;;;;;18.48;9.32;;;8.80;99.90;;;;;;5070136;28;20564;-56
2023/10/25 06:35:26;;;;;;;21.33;9.52;;;8.90;99.90;;;;;;5059296;28;20020;-57
2023/10/25 06:37:52;;;;;;;20.88;9.23;;;8.90;99.90;;;;;;5054588;28;20028;-57
2023/10/25 06:40:18;;;;;;;18.88;8.68;;;8.90;99.90;;;;;;5057551;28;20074;-57
2023/10/25 06:42:43;;;;;;;27.25;9.68;;;9.00;99.90;;;;;;5055484;28;20033;-58
2023/10/25 06:45:13;;;;;;;15.88;9.02;;;9.00;99.90;;;;;;5055676;28;20056;-60
2023/10/25 06:47:41;;;;;;;20.92;8.63;;;9.00;99.90;;;;;;5062071;28;20662;-56
2023/10/25 06:50:08;;;;;;;19.05;8.80;;;9.00;99.90;;;;;;5058036;28;20082;-56
2023/10/25 06:52:34;;;;;;;27.77;8.82;;;9.10;99.90;;;;;;5061357;28;20028;-55
2023/10/25 06:54:59;;;;;;;19.00;8.15;;;9.10;99.90;;;;;;5057921;28;20372;-60
2023/10/25 06:57:25;;;;;;;20.92;8.93;;;9.20;99.90;;;;;;5064534;28;20036;-59
2023/10/25 06:59:51;;;;;;;17.67;8.18;;;9.20;99.90;;;;;;5056818;28;20028;-59
2023/10/25 07:02:47;;;;;;;21.90;8.57;;;9.20;99.90;;;;;;5053767;28;20029;-59
2023/10/25 07:05:13;;;;;;;15.02;8.27;;;9.30;99.90;;;;;;5057906;28;20040;-59
2023/10/25 07:07:40;;;;;;;21.92;8.13;;;9.30;99.90;;;;;;5058313;28;20456;-60
2023/10/25 07:10:08;;;;;;;21.35;7.22;;;9.30;99.90;;;;;;5061006;28;20108;-60
2023/10/25 07:12:34;;;;;;;19.45;7.50;;;9.40;99.90;;;;;;5058107;28;20035;-58
2023/10/25 07:14:59;;;;;;;20.70;7.47;;;9.50;99.90;;;;;;5056572;28;20398;-60
2023/10/25 07:17:27;;;;;;;15.20;7.65;;;9.50;99.90;;;;;;5061616;28;20028;-58
2023/10/25 07:19:53;;;;;;;19.50;6.93;;;9.50;99.90;;;;;;5055563;28;20539;-58
2023/10/25 07:22:19;;;;;;;21.58;7.32;;;9.50;99.90;;;;;;5061180;28;20418;-58
2023/10/25 07:24:45;;;;;;;13.25;6.18;;;9.60;99.90;;;;;;5055435;28;20029;-58
2023/10/25 07:27:10;;;;;;;12.52;6.90;;;9.70;99.90;;;;;;5061584;28;20079;-58
2023/10/25 07:29:36;;;;;;;11.80;5.63;;;9.80;99.90;;;;;;5071457;28;20031;-58
2023/10/25 07:32:03;;;;;;;17.35;6.97;;;9.80;99.90;;;;;;5061423;28;20099;-60
2023/10/25 07:34:28;;;;;;;15.90;6.63;;;9.90;99.90;;;;;;5065505;28;20089;-54
2023/10/25 07:36:54;;;;;;;16.70;6.88;;;9.80;99.90;;;;;;5056241;28;20498;-58
2023/10/25 07:39:19;;;;;;;10.43;5.70;;;9.80;99.90;;;;;;5066330;28;20733;-59
2023/10/25 07:41:45;;;;;;;12.15;5.22;;;9.90;99.90;;;;;;5060751;28;20376;-59
2023/10/25 07:44:10;;;;;;;11.30;5.45;;;9.90;99.90;;;;;;5061892;28;20149;-57
2023/10/25 07:46:37;;;;;;;10.13;5.20;;;9.90;99.90;;;;;;5062669;28;20071;-60
2023/10/25 07:49:03;;;;;;;12.10;5.50;;;10.00;99.90;;;;;;5068557;28;20060;-59
2023/10/25 07:51:29;;;;;;;15.43;4.95;;;10.00;99.90;;;;;;5069139;28;20095;-60
2023/10/25 07:53:54;;;;;;;6.75;4.15;;;10.10;99.90;;;;;;5064352;28;20098;-60
2023/10/25 07:56:20;;;;;;;17.65;5.00;;;10.10;99.90;;;;;;5061047;28;20499;-60
2023/10/25 07:58:46;;;;;;;10.45;4.50;;;10.20;99.90;;;;;;5060732;28;20042;-59
2023/10/25 08:01:14;;;;;;;7.18;4.38;;;10.20;99.90;;;;;;5066663;28;20070;-57
2023/10/25 08:03:40;;;;;;;7.10;3.97;;;10.20;99.90;;;;;;5073925;28;20044;-61
2023/10/25 08:06:05;;;;;;;10.40;4.78;;;10.30;99.90;;;;;;5064557;28;20059;-57
2023/10/25 08:08:32;;;;;;;10.63;4.45;;;10.30;99.90;;;;;;5060144;28;20516;-57
2023/10/25 08:11:04;;;;;;;11.93;4.47;;;10.40;99.90;;;;;;5057773;28;20037;-58
2023/10/25 08:13:31;;;;;;;8.73;4.10;;;10.50;99.90;;;;;;5065653;28;20114;-61
2023/10/25 08:15:58;;;;;;;10.68;4.75;;;10.50;99.90;;;;;;5072113;28;20479;-59
2023/10/25 08:18:25;;;;;;;9.98;3.97;;;10.50;99.90;;;;;;5069229;28;20052;-59
2023/10/25 08:20:51;;;;;;;13.20;3.95;;;10.50;99.90;;;;;;5063893;28;20743;-60
2023/10/25 08:23:17;;;;;;;17.05;3.17;;;10.50;99.90;;;;;;5064262;28;20041;-57
2023/10/25 08:25:43;;;;;;;12.43;3.58;;;10.50;99.90;;;;;;5058838;28;20078;-57
2023/10/25 08:28:09;;;;;;;7.35;3.33;;;10.50;99.90;;;;;;5068233;28;20032;-56
2023/10/25 08:30:34;;;;;;;5.65;3.35;;;10.50;99.90;;;;;;5056835;28;20036;-56
2023/10/25 08:33:00;;;;;;;11.15;3.78;;;10.50;99.90;;;;;;5065386;28;20025;-58
2023/10/25 08:35:26;;;;;;;9.95;3.13;;;10.50;99.90;;;;;;5065893;28;20083;-59
2023/10/25 08:37:52;;;;;;;12.18;3.30;;;10.40;99.90;;;;;;5064315;28;20025;-59
2023/10/25 08:40:17;;;;;;;11.32;2.83;;;10.40;99.90;;;;;;5058488;28;20089;-58
2023/10/25 08:42:43;;;;;;;9.45;2.92;;;10.40;99.90;;;;;;5064158;28;20056;-57
2023/10/25 08:45:09;;;;;;;10.07;2.90;;;10.30;99.90;;;;;;5064358;28;20036;-57
2023/10/25 08:47:35;;;;;;;11.40;3.17;;;10.30;99.90;;;;;;5061408;28;20100;-60
2023/10/25 08:50:04;;;;;;;8.73;3.22;;;10.40;99.90;;;;;;5057292;28;20025;-60
2023/10/25 08:52:29;;;;;;;9.90;3.72;;;10.40;99.90;;;;;;5066098;28;20887;-59
2023/10/25 08:54:55;;;;;;;8.80;3.00;;;10.50;99.90;;;;;;5066766;28;20104;-59
2023/10/25 08:57:21;;;;;;;6.00;3.08;;;10.40;99.90;;;;;;5070290;28;20509;-60
2023/10/25 08:59:47;;;;;;;7.22;3.05;;;10.50;99.90;;;;;;5062199;28;20127;-58
2023/10/25 09:02:13;;;;;;;6.93;3.17;;;10.50;99.90;;;;;;5071576;28;20032;-58
2023/10/25 09:04:59;;;;;;;10.02;3.03;;;10.50;99.90;;;;;;5068663;28;20032;-58
2023/10/25 09:07:34;;;;;;;8.82;3.10;;;10.50;99.90;;;;;;5069069;28;20048;-58
2023/10/25 09:10:00;;;;;;;9.98;3.22;;;10.50;99.90;;;;;;5063904;28;20382;-58
2023/10/25 09:12:26;;;;;;;9.27;3.10;;;10.60;99.90;;;;;;5067568;28;20021;-58
2023/10/25 09:14:52;;;;;;;7.43;3.42;;;10.60;99.90;;;;;;5073574;28;20505;-58
2023/10/25 09:17:17;;;;;;;8.93;3.78;;;10.70;99.90;;;;;;5066873;28;20017;-57
2023/10/25 09:19:44;;;;;;;8.50;4.00;;;10.70;99.90;;;;;;5058552;28;20040;-59
2023/10/25 09:22:30;;;;;;;9.05;3.50;;;10.70;99.90;;;;;;5060355;28;20028;-59
2023/10/25 09:25:00;;;;;;;7.00;3.67;;;10.60;99.90;;;;;;5069838;28;20047;-57
2023/10/25 09:27:27;;;;;;;9.98;3.45;;;10.60;99.90;;;;;;5065984;28;20032;-59
2023/10/25 09:29:55;;;;;;;7.95;4.35;;;10.70;99.90;;;;;;5067700;28;20031;-60
2023/10/25 09:32:21;;;;;;;10.75;3.83;;;10.70;99.90;;;;;;5066170;28;20085;-59
2023/10/25 09:34:48;;;;;;;10.50;3.42;;;10.80;99.90;;;;;;5072012;28;20031;-59
2023/10/25 09:37:14;;;;;;;17.38;5.05;;;10.80;99.90;;;;;;5070744;28;20016;-60
2023/10/25 09:39:40;;;;;;;13.23;4.30;;;10.80;99.90;;;;;;5065989;28;20075;-60
2023/10/25 09:42:09;;;;;;;11.35;4.35;;;10.80;99.90;;;;;;5062759;28;20506;-59
2023/10/25 09:44:45;;;;;;;9.55;4.32;;;10.80;99.90;;;;;;5063987;28;20033;-60
2023/10/25 09:47:12;;;;;;;13.40;4.25;;;10.80;99.90;;;;;;5064194;28;20036;-59
2023/10/25 09:49:43;;;;;;;12.73;3.80;;;10.80;99.90;;;;;;5061216;28;20395;-60
2023/10/25 09:52:19;;;;;;;8.73;4.22;;;10.90;99.90;;;;;;5065448;28;20108;-59
2023/10/25 09:54:51;;;;;;;11.27;4.35;;;11.00;99.90;;;;;;5062997;28;20132;-59
2023/10/25 09:57:21;;;;;;;6.47;4.30;;;11.00;99.90;;;;;;5065597;28;20078;-60
2023/10/25 09:59:47;;;;;;;7.75;4.15;;;11.00;99.90;;;;;;5062692;28;20016;-59
2023/10/25 10:02:33;;;;;;;15.65;4.45;;;11.00;99.90;;;;;;5067024;28;20050;-59
2023/10/25 10:05:13;;;;;;;10.20;4.80;;;11.00;99.90;;;;;;5071311;28;20035;-59
2023/10/25 10:07:56;;;;;;;9.52;4.38;;;11.00;99.90;;;;;;5063764;28;20037;-59
2023/10/25 10:10:37;;;;;;;6.50;4.53;;;10.90;99.90;;;;;;5065146;28;20024;-59
2023/10/25 10:13:20;;;;;;;14.57;4.68;;;11.00;99.90;;;;;;5071379;28;20485;-57
2023/10/25 10:16:04;;;;;;;15.32;5.90;;;11.00;99.90;;;;;;5063155;28;20032;-59
2023/10/25 10:18:34;;;;;;;11.68;5.40;;;11.00;99.90;;;;;;5063334;28;20029;-59
2023/10/25 10:21:04;;;;;;;10.35;4.95;;;10.90;99.90;;;;;;5067537;28;20029;-58
2023/10/25 10:23:40;;;;;;;9.57;5.32;;;10.90;99.90;;;;;;5064317;28;20434;-59
2023/10/25 10:26:08;;;;;;;11.95;6.13;;;10.80;99.90;;;;;;5066080;28;20044;-59
2023/10/25 10:28:41;;;;;;;13.07;6.72;;;10.90;99.90;;;;;;5066600;28;20633;-59
2023/10/25 10:31:11;;;;;;;9.13;5.50;;;10.80;99.90;;;;;;5073686;28;20028;-60
2023/10/25 10:33:48;;;;;;;10.25;5.75;;;10.80;99.90;;;;;;5066251;28;20025;-59
2023/10/25 10:36:27;;;;;;;10.43;5.18;;;10.70;99.90;;;;;;5064629;28;20078;-58
2023/10/25 10:39:12;;;;;;;9.25;5.63;;;10.80;99.90;;;;;;5059572;28;20070;-57
2023/10/25 10:41:42;;;;;;;11.70;6.03;;;10.70;99.90;;;;;;5064791;28;20032;-60
2023/10/25 10:44:08;;;;;;;12.38;5.93;;;10.70;99.90;;;;;;5066402;28;20021;-60
2023/10/25 10:46:50;;;;;;;12.27;5.97;;;10.80;99.90;;;;;;5071420;28;20593;-60
2023/10/25 10:49:22;;;;;;;14.18;6.20;;;10.80;99.90;;;;;;5064330;28;20078;-61
2023/10/25 10:51:49;;;;;;;20.20;6.60;;;10.80;99.90;;;;;;5067490;28;20383;-60
2023/10/25 10:54:14;;;;;;;18.00;7.15;;;10.80;99.90;;;;;;5064850;28;20021;-56
2023/10/25 10:56:40;;;;;;;12.02;6.93;;;10.80;99.90;;;;;;5058508;28;20029;-59
2023/10/25 10:59:06;;;;;;;11.98;6.75;;;10.70;99.90;;;;;;5055769;28;20104;-60
2023/10/25 11:01:32;;;;;;;17.90;8.20;;;10.80;99.90;;;;;;5062959;28;20037;-59
2023/10/25 11:03:58;;;;;;;15.40;7.82;;;10.80;99.90;;;;;;5068338;28;20024;-60
2023/10/25 11:06:24;;;;;;;15.93;9.10;;;10.70;99.90;;;;;;5063980;28;20031;-61
2023/10/25 11:08:51;;;;;;;14.20;8.45;;;10.80;99.90;;;;;;5060838;28;20025;-61
2023/10/25 11:11:20;;;;;;;17.67;9.43;;;10.80;99.90;;;;;;5053022;28;20017;-58
2023/10/25 11:13:48;;;;;;;16.98;10.02;;;10.80;99.90;;;;;;5062409;28;20052;-59
2023/10/25 11:16:14;;;;;;;21.10;10.50;;;10.80;99.90;;;;;;5060138;28;20013;-57
2023/10/25 11:18:39;;;;;;;16.58;10.25;;;10.80;99.90;;;;;;5065575;28;20041;-59
2023/10/25 11:21:05;;;;;;;20.15;11.70;;;10.90;99.90;;;;;;5057741;28;20079;-61
2023/10/25 11:23:30;;;;;;;20.77;13.23;;;10.90;99.90;;;;;;5064851;28;20036;-60
2023/10/25 11:25:56;;;;;;;21.17;12.68;;;10.90;99.90;;;;;;5058658;28;20032;-60
2023/10/25 11:28:23;;;;;;;19.98;12.68;;;10.90;99.90;;;;;;5062513;28;20037;-59
2023/10/25 11:30:50;;;;;;;21.70;11.23;;;10.90;99.90;;;;;;5055551;28;20025;-60
2023/10/25 11:33:16;;;;;;;25.17;13.00;;;10.90;99.90;;;;;;5055267;28;20024;-60
2023/10/25 11:35:43;;;;;;;22.40;13.05;;;10.90;99.90;;;;;;5057483;28;20125;-60
2023/10/25 11:38:12;;;;;;;24.30;12.63;;;10.90;99.90;;;;;;5062322;28;20025;-60
2023/10/25 11:40:45;;;;;;;20.35;12.40;;;10.90;99.90;;;;;;5058791;28;20135;-58
2023/10/25 11:43:12;;;;;;;21.85;12.70;;;10.90;99.90;;;;;;5065776;28;20040;-57
2023/10/25 11:45:38;;;;;;;20.38;11.63;;;11.00;99.90;;;;;;5067794;28;20178;-59
2023/10/25 11:48:06;;;;;;;17.88;11.38;;;10.90;99.90;;;;;;5060663;28;20446;-61
2023/10/25 11:50:32;;;;;;;23.58;12.90;;;11.00;99.90;;;;;;5056842;28;20029;-59
2023/10/25 11:53:00;;;;;;;24.65;12.60;;;11.00;99.90;;;;;;5068350;28;20569;-60
2023/10/25 11:55:27;;;;;;;23.00;11.40;;;11.00;99.90;;;;;;5068090;28;20254;-60
2023/10/25 11:57:55;;;;;;;22.67;11.35;;;11.00;99.90;;;;;;5061722;28;20025;-60
2023/10/25 12:00:21;;;;;;;22.33;11.73;;;11.10;99.90;;;;;;5058884;28;20386;-57
2023/10/25 12:02:46;;;;;;;25.63;11.43;;;11.10;99.90;;;;;;5064027;28;20025;-60
2023/10/25 12:05:12;;;;;;;20.17;11.70;;;11.20;99.90;;;;;;5056844;28;20036;-59
2023/10/25 12:07:38;;;;;;;19.10;10.63;;;11.20;99.90;;;;;;5062614;28;21043;-59
2023/10/25 12:10:04;;;;;;;24.77;11.88;;;11.10;99.90;;;;;;5064691;28;20126;-60
2023/10/25 12:12:30;;;;;;;22.10;11.15;;;11.20;99.90;;;;;;5065283;28;20026;-60
2023/10/25 12:14:56;;;;;;;19.63;9.88;;;11.20;99.90;;;;;;5062835;28;20033;-61
2023/10/25 12:17:22;;;;;;;20.67;10.63;;;11.20;99.90;;;;;;5060841;28;20556;-62
2023/10/25 12:19:50;;;;;;;22.38;10.60;;;11.30;99.90;;;;;;5065474;28;20383;-59
2023/10/25 12:22:16;;;;;;;17.45;10.25;;;11.30;99.90;;;;;;5061933;28;20057;-61
2023/10/25 12:24:43;;;;;;;18.75;9.80;;;11.30;99.90;;;;;;5060728;28;20036;-60
2023/10/25 12:27:09;;;;;;;22.10;10.30;;;11.30;99.90;;;;;;5059832;28;20533;-61
2023/10/25 12:29:35;;;;;;;17.52;10.65;;;11.30;99.90;;;;;;5063972;28;20120;-59
2023/10/25 12:32:03;;;;;;;18.58;10.05;;;11.30;99.90;;;;;;5058734;28;20033;-61
2023/10/25 12:34:29;;;;;;;18.65;9.20;;;11.30;99.90;;;;;;5062145;28;20495;-61
2023/10/25 12:36:54;;;;;;;18.05;9.18;;;11.30;99.90;;;;;;5062097;28;20024;-60
2023/10/25 12:39:20;;;;;;;24.48;9.85;;;11.40;99.90;;;;;;5064599;28;20077;-60
2023/10/25 12:41:46;;;;;;;18.10;9.68;;;11.40;99.90;;;;;;5055695;28;22396;-61